Dixie, Louisiana
Current Conditions -  °F | °C
As of 5:53 AM on Friday 28 Nov 2014 (Local Time) from KDTN Reporting Station
Clear Clear  
Wind Chill: 35°   Ceiling: Unl
Heat Index: 35°   Visibility: 10mi
Dew Point: 30°   Wind: 3mph
Humidity: 82%   Direction: 140°SE
Pressure: 30.38"   Gusts: NA
Location:  32.5955°N, 93.8642°W
Report Text: KDTN 281153Z AUTO 14003KT 10SM CLR 02/M01 A3038 RMK AO2 SLP286 T00171011 10044 20017 58008
Loading
Personal Weather Stations






























Interactive Weather Map New forecast layout! Learn more

10-Day Weather Forecast

Advertisements
Track Severe Weather on mobile